createdAt,value
2017-10-24T00:01:10.113Z,25.80
2017-10-24T00:03:37.645Z,32.67
2017-10-24T00:06:05.225Z,28.13
2017-10-24T00:08:33.655Z,30.93
2017-10-24T00:11:01.880Z,28.97
2017-10-24T00:13:29.676Z,43.60
2017-10-24T00:15:57.235Z,27.47
2017-10-24T00:18:24.767Z,38.20
2017-10-24T00:20:53.030Z,38.90
2017-10-24T00:23:20.596Z,31.07
2017-10-24T00:25:48.128Z,27.97
2017-10-24T00:28:15.718Z,35.13
2017-10-24T00:30:43.247Z,34.37
2017-10-24T00:33:10.837Z,34.43
2017-10-24T00:35:39.157Z,29.20
2017-10-24T00:38:06.740Z,33.53
2017-10-24T00:40:34.271Z,42.20
2017-10-24T00:43:01.809Z,42.93
2017-10-24T00:45:29.603Z,50.97
2017-10-24T00:47:57.152Z,53.73
2017-10-24T00:50:25.469Z,78.47
2017-10-24T00:52:53.002Z,70.43
2017-10-24T00:55:21.324Z,122.73
2017-10-24T00:57:48.860Z,124.07
2017-10-24T01:00:16.387Z,138.80
2017-10-24T01:02:43.921Z,142.47
2017-10-24T01:05:11.447Z,94.10
2017-10-24T01:07:38.979Z,229.63
2017-10-24T01:10:06.519Z,183.90
2017-10-24T01:12:34.054Z,202.43
2017-10-24T01:15:02.631Z,113.37
2017-10-24T01:17:31.120Z,96.63
2017-10-24T01:19:59.576Z,86.37
2017-10-24T01:22:27.111Z,112.97
2017-10-24T01:24:54.644Z,69.00
2017-10-24T01:27:23.107Z,79.40
2017-10-24T01:29:50.637Z,82.83
2017-10-24T01:32:18.166Z,74.17
2017-10-24T01:34:45.691Z,66.80
2017-10-24T01:37:14.171Z,85.23
2017-10-24T01:39:41.701Z,86.27
2017-10-24T01:42:10.033Z,102.97
2017-10-24T01:44:37.559Z,37.30
2017-10-24T01:47:05.947Z,143.50
2017-10-24T01:49:33.507Z,92.40
2017-10-24T01:52:01.828Z,64.40
2017-10-24T01:54:30.016Z,97.40
2017-10-24T01:56:58.337Z,89.00
2017-10-24T01:59:25.864Z,60.90
2017-10-24T02:01:53.391Z,77.80
2017-10-24T02:04:20.925Z,69.50
2017-10-24T02:06:49.351Z,64.60
2017-10-24T02:09:16.880Z,51.80
2017-10-24T02:11:44.414Z,50.70
2017-10-24T02:14:12.597Z,57.67
2017-10-24T02:16:40.128Z,91.43
2017-10-24T02:19:07.653Z,58.30
2017-10-24T02:21:35.235Z,53.00
2017-10-24T02:24:02.760Z,55.67
2017-10-24T02:26:31.770Z,60.17
2017-10-24T02:29:00.389Z,58.00
2017-10-24T02:31:28.730Z,61.97
2017-10-24T02:33:56.256Z,62.27
2017-10-24T02:36:24.565Z,49.73
2017-10-24T02:38:52.908Z,45.80
2017-10-24T02:41:20.474Z,52.00
2017-10-24T02:43:48.916Z,45.57
2017-10-24T02:46:16.461Z,47.57
2017-10-24T02:48:44.902Z,42.93
2017-10-24T02:51:12.437Z,43.93
2017-10-24T02:53:40.865Z,42.20
2017-10-24T02:56:08.409Z,44.67
2017-10-24T02:58:36.970Z,45.93
2017-10-24T03:01:04.515Z,35.03
2017-10-24T03:03:32.981Z,44.33
2017-10-24T03:06:00.952Z,38.03
2017-10-24T03:08:29.192Z,39.37
2017-10-24T03:10:56.735Z,34.43
2017-10-24T03:13:24.261Z,39.83
2017-10-24T03:15:52.573Z,46.23
2017-10-24T03:18:20.114Z,38.63
2017-10-24T03:20:48.599Z,45.47
2017-10-24T03:23:16.132Z,32.73
2017-10-24T03:25:44.608Z,42.97
2017-10-24T03:28:12.142Z,40.60
2017-10-24T03:30:40.501Z,52.87
2017-10-24T03:33:08.032Z,49.30
2017-10-24T03:35:36.529Z,44.90
2017-10-24T03:38:04.056Z,45.60
2017-10-24T03:40:32.432Z,41.20
2017-10-24T03:43:00.900Z,47.40
2017-10-24T03:45:28.430Z,36.03
2017-10-24T03:47:56.927Z,33.50
2017-10-24T03:50:25.239Z,37.63
2017-10-24T03:52:52.768Z,40.30
2017-10-24T03:55:20.304Z,41.70
2017-10-24T03:57:48.741Z,54.37
2017-10-24T04:00:19.294Z,45.60
2017-10-24T04:02:47.634Z,49.17
2017-10-24T04:05:15.204Z,48.63
2017-10-24T04:07:43.642Z,40.37
2017-10-24T04:10:11.180Z,41.53
2017-10-24T04:12:38.711Z,47.40
2017-10-24T04:15:06.236Z,40.03
2017-10-24T04:17:33.760Z,39.17
2017-10-24T04:20:01.856Z,44.23
2017-10-24T04:22:31.203Z,41.83
2017-10-24T04:24:58.737Z,43.00
2017-10-24T04:27:26.279Z,42.97
2017-10-24T04:29:53.807Z,53.30
2017-10-24T04:32:21.342Z,55.50
2017-10-24T04:34:49.688Z,57.23
2017-10-24T04:37:17.223Z,52.50
2017-10-24T04:39:44.758Z,51.00
2017-10-24T04:42:12.297Z,57.53
2017-10-24T04:44:39.843Z,53.93
2017-10-24T04:47:07.384Z,60.63
2017-10-24T04:49:35.016Z,61.93
2017-10-24T04:52:03.476Z,45.07
2017-10-24T04:54:31.731Z,60.63
2017-10-24T04:57:00.660Z,54.60
2017-10-24T04:59:28.228Z,62.97
2017-10-24T05:01:56.547Z,62.67
2017-10-24T05:04:24.079Z,62.53
2017-10-24T05:06:52.444Z,58.77
2017-10-24T05:09:19.979Z,55.67
2017-10-24T05:11:47.565Z,73.27
2017-10-24T05:14:15.107Z,42.90
2017-10-24T05:16:42.645Z,61.90
2017-10-24T05:19:11.160Z,51.87
2017-10-24T05:21:38.687Z,50.70
2017-10-24T05:24:07.129Z,46.40
2017-10-24T05:26:34.775Z,52.03
2017-10-24T05:29:02.429Z,51.10
2017-10-24T05:31:30.771Z,52.03
2017-10-24T05:33:58.307Z,78.20
2017-10-24T05:36:25.933Z,71.93
2017-10-24T05:38:53.457Z,63.67
2017-10-24T05:41:20.989Z,85.83
2017-10-24T05:43:49.419Z,71.53
2017-10-24T05:46:16.985Z,80.17
2017-10-24T05:48:44.557Z,59.37
2017-10-24T05:51:12.895Z,49.33
2017-10-24T05:53:40.425Z,59.10
2017-10-24T05:56:07.949Z,55.93
2017-10-24T05:58:36.408Z,52.83
2017-10-24T06:01:03.932Z,50.37
2017-10-24T06:03:32.389Z,50.30
2017-10-24T06:06:00.592Z,50.00
2017-10-24T06:08:28.896Z,64.90
2017-10-24T06:10:56.434Z,48.23
2017-10-24T06:13:24.012Z,57.27
2017-10-24T06:15:51.546Z,42.73
2017-10-24T06:18:19.168Z,38.97
2017-10-24T06:20:46.697Z,39.73
2017-10-24T06:23:14.231Z,38.27
2017-10-24T06:25:41.761Z,31.77
2017-10-24T06:28:10.124Z,36.40
2017-10-24T06:30:37.663Z,44.40
2017-10-24T06:33:06.177Z,35.37
2017-10-24T06:35:33.760Z,40.83
2017-10-24T06:38:02.192Z,40.37
2017-10-24T06:40:30.607Z,28.27
2017-10-24T06:42:58.976Z,32.57
2017-10-24T06:45:27.283Z,28.83
2017-10-24T06:47:54.849Z,28.90
2017-10-24T06:50:23.168Z,27.60
2017-10-24T06:52:50.748Z,33.33
2017-10-24T06:55:18.313Z,30.50
2017-10-24T06:57:46.784Z,34.00
2017-10-24T07:00:15.128Z,26.80
2017-10-24T07:02:42.665Z,30.27
2017-10-24T07:05:10.192Z,32.67
2017-10-24T07:07:38.644Z,28.77
2017-10-24T07:10:06.225Z,36.87
2017-10-24T07:12:34.686Z,27.53
2017-10-24T07:15:02.922Z,31.90
2017-10-24T07:17:30.716Z,26.83
2017-10-24T07:19:58.249Z,30.07
2017-10-24T07:22:28.449Z,30.73
2017-10-24T07:24:55.979Z,25.20
2017-10-24T07:27:24.332Z,32.00
2017-10-24T07:29:52.180Z,26.30
2017-10-24T07:32:19.815Z,28.27
2017-10-24T07:34:47.363Z,30.87
2017-10-24T07:37:14.896Z,30.23
2017-10-24T07:39:42.432Z,36.50
2017-10-24T07:42:09.987Z,33.40
2017-10-24T07:44:37.609Z,34.00
2017-10-24T07:47:05.268Z,40.60
2017-10-24T07:49:32.795Z,30.90
2017-10-24T07:52:00.325Z,35.80
2017-10-24T07:54:28.627Z,30.60
2017-10-24T07:56:56.227Z,33.93
2017-10-24T07:59:24.799Z,29.33
2017-10-24T08:01:52.984Z,30.83
2017-10-24T08:04:20.644Z,35.97
2017-10-24T08:06:49.032Z,34.00
2017-10-24T08:09:16.611Z,33.10
2017-10-24T08:11:44.924Z,29.50
2017-10-24T08:14:12.465Z,28.57
2017-10-24T08:16:41.016Z,35.10
2017-10-24T08:19:08.681Z,39.50
2017-10-24T08:21:36.247Z,38.47
2017-10-24T08:24:04.721Z,36.03
2017-10-24T08:26:32.377Z,38.17
2017-10-24T08:29:00.721Z,34.47
2017-10-24T08:31:28.251Z,35.80
2017-10-24T08:33:56.714Z,31.50
2017-10-24T08:36:25.088Z,36.83
2017-10-24T08:38:54.148Z,30.37
2017-10-24T08:41:21.675Z,31.37
2017-10-24T08:43:50.015Z,31.40
2017-10-24T08:46:17.573Z,37.92
2017-10-24T08:48:45.941Z,29.20
2017-10-24T08:51:14.172Z,27.57
2017-10-24T08:53:41.792Z,40.47
2017-10-24T08:56:09.333Z,37.87
2017-10-24T08:58:37.763Z,34.73
2017-10-24T09:01:06.316Z,30.10
2017-10-24T09:03:33.875Z,32.90
2017-10-24T09:06:18.336Z,30.17
2017-10-24T09:12:10.324Z,32.97
2017-10-24T09:14:39.623Z,37.10
2017-10-24T09:20:08.509Z,40.37
2017-10-24T09:22:36.084Z,44.17
2017-10-24T09:25:03.621Z,36.87
2017-10-24T09:27:31.208Z,39.33
2017-10-24T09:29:59.676Z,35.43
2017-10-24T09:32:29.733Z,35.13
2017-10-24T09:34:58.269Z,44.67
2017-10-24T09:37:25.799Z,30.53
2017-10-24T09:39:53.360Z,36.10
2017-10-24T09:42:20.950Z,37.77
2017-10-24T09:44:48.483Z,32.00
2017-10-24T09:47:16.074Z,35.97
2017-10-24T09:49:55.461Z,28.80
2017-10-24T09:52:23.005Z,30.70
2017-10-24T09:54:50.536Z,31.03
2017-10-24T09:57:18.077Z,28.63
2017-10-24T09:59:46.325Z,31.83
2017-10-24T10:02:13.862Z,26.63
2017-10-24T10:04:41.392Z,26.77
2017-10-24T10:07:09.712Z,25.10
2017-10-24T10:09:37.260Z,26.30
2017-10-24T10:12:04.887Z,29.90
2017-10-24T10:14:32.448Z,24.77
2017-10-24T10:16:59.981Z,27.73
2017-10-24T10:19:27.512Z,28.10
2017-10-24T10:21:55.134Z,24.83
2017-10-24T10:24:30.367Z,25.30
2017-10-24T10:26:58.644Z,22.00
2017-10-24T10:29:26.171Z,25.60
2017-10-24T10:31:53.699Z,25.67
2017-10-24T10:34:21.244Z,25.93
2017-10-24T10:36:49.766Z,22.13
2017-10-24T10:39:17.369Z,23.33
2017-10-24T10:41:44.907Z,25.33
2017-10-24T10:44:12.494Z,29.83
2017-10-24T10:46:40.055Z,24.90
2017-10-24T10:49:07.596Z,20.23
2017-10-24T10:51:35.920Z,18.87
2017-10-24T10:54:03.461Z,17.80
2017-10-24T10:56:30.993Z,23.03
2017-10-24T10:58:58.575Z,20.13
2017-10-24T11:01:26.114Z,20.10
2017-10-24T11:03:54.518Z,17.83
2017-10-24T11:06:22.068Z,13.07
2017-10-24T11:08:49.627Z,13.70
2017-10-24T11:11:17.201Z,10.97
2017-10-24T11:13:44.728Z,11.93
2017-10-24T11:16:13.296Z,15.90
2017-10-24T11:18:41.533Z,16.53
2017-10-24T11:21:09.978Z,10.03
2017-10-24T11:23:37.708Z,9.73
2017-10-24T11:26:05.236Z,8.97
2017-10-24T11:28:32.778Z,11.50
2017-10-24T11:31:00.306Z,7.50
2017-10-24T11:33:27.852Z,10.53
2017-10-24T11:35:55.388Z,9.93
2017-10-24T11:38:22.921Z,10.40
2017-10-24T11:40:50.457Z,9.77
2017-10-24T11:43:17.988Z,9.20
2017-10-24T11:45:45.571Z,9.43
2017-10-24T11:48:13.154Z,8.60
2017-10-24T11:50:40.684Z,14.27
2017-10-24T11:53:09.299Z,12.63
2017-10-24T11:55:36.849Z,12.30
2017-10-24T11:58:04.433Z,8.47
2017-10-24T12:00:31.985Z,10.23
2017-10-24T12:02:59.542Z,7.20
2017-10-24T12:05:27.072Z,10.83
2017-10-24T12:07:54.657Z,10.40
2017-10-24T12:10:22.230Z,10.50
2017-10-24T12:12:49.801Z,11.47
2017-10-24T12:15:17.376Z,13.23
2017-10-24T12:17:45.812Z,8.97
2017-10-24T12:20:13.929Z,13.00
2017-10-24T12:22:41.563Z,11.50
2017-10-24T12:25:10.042Z,10.63
2017-10-24T12:27:37.851Z,11.67
2017-10-24T12:30:05.432Z,9.90
2017-10-24T12:32:32.967Z,11.23
2017-10-24T12:35:00.497Z,12.10
2017-10-24T12:37:28.060Z,8.97
2017-10-24T12:39:55.596Z,11.67
2017-10-24T12:42:23.448Z,14.90
2017-10-24T12:45:00.872Z,14.37
2017-10-24T12:47:28.400Z,10.07
2017-10-24T12:53:05.873Z,13.93
2017-10-24T12:55:33.405Z,12.83
2017-10-24T12:58:01.245Z,14.50
2017-10-24T13:00:28.772Z,12.67
2017-10-24T13:02:56.304Z,15.40
2017-10-24T13:05:26.227Z,16.67
2017-10-24T13:07:54.521Z,9.77
2017-10-24T13:10:22.556Z,16.17
2017-10-24T13:12:50.080Z,13.97
2017-10-24T13:15:17.859Z,12.07
2017-10-24T13:17:46.250Z,14.73
2017-10-24T13:20:14.749Z,11.90
2017-10-24T13:22:43.016Z,13.97
2017-10-24T13:25:10.586Z,15.93
2017-10-24T13:27:38.122Z,18.70
2017-10-24T13:30:06.433Z,12.23
2017-10-24T13:32:35.046Z,9.40
2017-10-24T13:35:03.474Z,18.10
2017-10-24T13:37:31.041Z,14.97
2017-10-24T13:39:59.513Z,17.40
2017-10-24T13:42:28.111Z,13.83
2017-10-24T13:44:55.636Z,9.20
2017-10-24T13:47:24.053Z,14.60
2017-10-24T13:49:52.600Z,11.97
2017-10-24T13:52:20.950Z,10.60
2017-10-24T13:54:48.529Z,12.13
2017-10-24T13:57:16.061Z,13.33
2017-10-24T13:59:43.592Z,14.70
2017-10-24T14:02:11.123Z,15.83
2017-10-24T14:04:44.332Z,10.83
2017-10-24T20:44:29.684Z,9.43
2017-10-24T20:46:58.272Z,10.80
2017-10-24T20:49:26.699Z,9.83
2017-10-24T20:51:54.230Z,9.10
2017-10-24T20:54:21.762Z,8.23
2017-10-24T20:56:49.335Z,11.20
2017-10-24T20:59:17.800Z,8.53
2017-10-24T21:01:46.246Z,9.43
2017-10-24T21:04:14.692Z,7.30
2017-10-24T21:06:42.228Z,11.23
2017-10-24T21:09:10.654Z,10.33
2017-10-24T21:11:38.309Z,11.30
2017-10-24T21:14:05.878Z,7.90
2017-10-24T21:16:33.432Z,15.20
2017-10-24T21:19:01.849Z,10.90
2017-10-24T21:21:29.381Z,10.43
2017-10-24T21:23:57.652Z,8.63
2017-10-24T21:26:25.312Z,7.10
2017-10-24T21:28:52.871Z,8.37
2017-10-24T21:31:20.388Z,8.27
2017-10-24T21:33:47.912Z,7.40
2017-10-24T21:36:17.506Z,7.57
2017-10-24T21:38:45.836Z,8.90
2017-10-24T21:41:13.440Z,7.00
2017-10-24T21:43:41.654Z,6.37
2017-10-24T21:46:10.273Z,9.17
2017-10-24T21:48:37.801Z,10.90
2017-10-24T21:51:05.420Z,6.63
2017-10-24T21:53:33.709Z,9.53
2017-10-24T21:56:01.227Z,8.77
2017-10-24T21:58:28.752Z,8.60
2017-10-24T22:00:56.380Z,7.07
2017-10-24T22:03:24.658Z,9.43
2017-10-24T22:05:52.223Z,12.27
2017-10-24T22:08:19.784Z,7.90
2017-10-24T22:10:47.341Z,9.10
2017-10-24T22:13:14.868Z,6.60
2017-10-24T22:15:42.428Z,6.90
2017-10-24T22:18:10.360Z,7.57
2017-10-24T22:20:37.883Z,6.70
2017-10-24T22:23:05.452Z,5.53
2017-10-24T22:25:33.013Z,5.73
2017-10-24T22:28:00.575Z,4.30
2017-10-24T22:30:28.132Z,6.57
2017-10-24T22:32:56.509Z,6.47
2017-10-24T22:35:24.067Z,6.03
2017-10-24T22:37:53.072Z,5.87
2017-10-24T22:40:20.729Z,6.37
2017-10-24T22:42:48.262Z,4.90
2017-10-24T22:45:15.784Z,6.93
2017-10-24T22:47:44.086Z,7.47
2017-10-24T22:50:11.608Z,6.33
2017-10-24T22:52:39.340Z,6.43
2017-10-24T22:55:06.907Z,8.70
2017-10-24T22:57:34.466Z,5.70
2017-10-24T23:00:02.628Z,6.60
2017-10-24T23:02:30.200Z,7.40
2017-10-24T23:04:57.769Z,8.87
2017-10-24T23:07:26.161Z,7.93
2017-10-24T23:09:53.703Z,8.60
2017-10-24T23:12:21.364Z,8.50
2017-10-24T23:14:48.896Z,10.83
2017-10-24T23:17:17.280Z,13.30
2017-10-24T23:19:44.809Z,7.10
2017-10-24T23:22:12.331Z,7.37
2017-10-24T23:24:39.861Z,8.50
2017-10-24T23:27:07.448Z,6.83
2017-10-24T23:29:35.213Z,8.30
2017-10-24T23:32:02.746Z,19.20
2017-10-24T23:34:31.644Z,9.13
2017-10-24T23:36:59.223Z,9.20
2017-10-24T23:39:27.744Z,11.23
2017-10-24T23:41:55.367Z,9.30
2017-10-24T23:44:22.928Z,9.50
2017-10-24T23:46:50.455Z,8.50
2017-10-24T23:49:18.667Z,8.50
2017-10-24T23:51:46.193Z,10.67
2017-10-24T23:54:14.607Z,10.33
2017-10-24T23:56:42.267Z,10.93
2017-10-24T23:59:09.829Z,9.33
